createdAt,value
2018-07-09T00:02:23.263Z,98563.47
2018-07-09T00:04:51.716Z,98559.85
2018-07-09T00:07:20.339Z,98561.20
2018-07-09T00:09:48.811Z,98555.91
2018-07-09T00:12:17.244Z,98557.08
2018-07-09T00:14:45.821Z,98554.38
2018-07-09T00:17:14.495Z,98549.02
2018-07-09T00:19:42.980Z,98545.30
2018-07-09T00:22:11.398Z,98550.94
2018-07-09T00:24:41.181Z,98542.89
2018-07-09T00:27:09.812Z,98548.91
2018-07-09T00:29:38.333Z,98545.59
2018-07-09T00:32:06.752Z,98545.70
2018-07-09T00:34:35.204Z,98548.09
2018-07-09T00:37:03.683Z,98542.44
2018-07-09T00:39:32.119Z,98546.06
2018-07-09T00:42:01.611Z,98543.03
2018-07-09T00:44:30.104Z,98543.22
2018-07-09T00:46:58.569Z,98553.59
2018-07-09T00:49:27.018Z,98547.89
2018-07-09T00:51:55.726Z,98548.50
2018-07-09T00:54:24.700Z,98545.73
2018-07-09T00:56:53.187Z,98548.15
2018-07-09T00:59:21.883Z,98539.21
2018-07-09T01:01:50.360Z,98544.20
2018-07-09T01:04:18.804Z,98532.85
2018-07-09T01:06:47.223Z,98536.94
2018-07-09T01:09:15.696Z,98541.73
2018-07-09T01:11:46.420Z,98542.97
2018-07-09T01:14:15.071Z,98542.95
2018-07-09T01:16:43.559Z,98537.67
2018-07-09T01:19:12.063Z,98536.64
2018-07-09T01:21:40.498Z,98531.66
2018-07-09T01:24:08.940Z,98534.73
2018-07-09T01:26:37.424Z,98534.11
2018-07-09T01:29:05.947Z,98539.04
2018-07-09T01:31:34.597Z,98532.81
2018-07-09T01:34:03.035Z,98535.48
2018-07-09T01:36:31.476Z,98531.48
2018-07-09T01:38:59.883Z,98529.70
2018-07-09T01:41:28.315Z,98524.63
2018-07-09T01:43:56.752Z,98522.13
2018-07-09T01:46:25.424Z,98522.56
2018-07-09T01:48:53.904Z,98523.16
2018-07-09T01:51:22.308Z,98524.38
2018-07-09T01:53:50.715Z,98526.83
2018-07-09T01:56:19.137Z,98520.06
2018-07-09T01:58:54.186Z,98520.46
2018-07-09T02:01:22.647Z,98519.06
2018-07-09T02:03:51.701Z,98517.12
2018-07-09T02:06:20.455Z,98519.28
2018-07-09T02:08:49.153Z,98520.17
2018-07-09T02:11:17.600Z,98519.21
2018-07-09T02:13:46.052Z,98513.20
2018-07-09T02:16:14.516Z,98515.01
2018-07-09T02:18:43.175Z,98517.05
2018-07-09T02:21:11.634Z,98516.35
2018-07-09T02:23:40.393Z,98509.44
2018-07-09T02:26:08.892Z,98521.64
2018-07-09T02:28:37.396Z,98514.04
2018-07-09T02:31:06.055Z,98514.98
2018-07-09T02:33:34.479Z,98519.42
2018-07-09T02:36:02.915Z,98520.60
2018-07-09T02:38:31.391Z,98525.82
2018-07-09T02:40:59.844Z,98517.45
2018-07-09T02:43:28.324Z,98520.59
2018-07-09T02:45:57.150Z,98515.44
2018-07-09T02:48:25.570Z,98520.81
2018-07-09T02:50:54.148Z,98519.48
2018-07-09T02:53:22.792Z,98524.58
2018-07-09T02:55:51.268Z,98522.32
2018-07-09T02:58:19.705Z,98524.20
2018-07-09T03:00:48.228Z,98523.89
2018-07-09T03:03:16.596Z,98527.09
2018-07-09T03:05:45.062Z,98519.91
2018-07-09T03:08:13.791Z,98523.37
2018-07-09T03:10:42.272Z,98525.69
2018-07-09T03:13:11.031Z,98526.98
2018-07-09T03:15:39.520Z,98526.45
2018-07-09T03:18:07.997Z,98525.75
2018-07-09T03:20:36.452Z,98526.19
2018-07-09T03:23:04.916Z,98525.94
2018-07-09T03:25:33.351Z,98527.58
2018-07-09T03:28:01.771Z,98531.22
2018-07-09T03:30:30.388Z,98533.24
2018-07-09T03:32:58.827Z,98533.52
2018-07-09T03:35:27.332Z,98536.30
2018-07-09T03:37:55.763Z,98533.00
2018-07-09T03:40:24.188Z,98540.91
2018-07-09T03:42:52.934Z,98532.30
2018-07-09T03:45:21.348Z,98530.98
2018-07-09T03:47:49.798Z,98535.62
2018-07-09T03:50:18.429Z,98544.11
2018-07-09T03:52:46.913Z,98541.72
2018-07-09T03:55:15.369Z,98540.73
2018-07-09T03:57:43.810Z,98542.19
2018-07-09T04:00:12.345Z,98539.59
2018-07-09T04:02:40.753Z,98544.09
2018-07-09T04:05:09.216Z,98542.14
2018-07-09T04:07:37.663Z,98541.02
2018-07-09T04:10:06.138Z,98547.88
2018-07-09T04:12:34.600Z,98549.05
2018-07-09T04:15:03.039Z,98539.20
2018-07-09T04:17:31.461Z,98542.36
2018-07-09T04:20:00.154Z,98546.55
2018-07-09T04:22:28.540Z,98539.33
2018-07-09T04:24:57.050Z,98543.88
2018-07-09T04:27:25.460Z,98546.17
2018-07-09T04:29:53.948Z,98547.66
2018-07-09T04:32:22.452Z,98549.61
2018-07-09T04:34:50.874Z,98558.63
2018-07-09T04:37:19.336Z,98553.45
2018-07-09T04:39:47.807Z,98543.83
2018-07-09T04:42:16.270Z,98551.70
2018-07-09T04:44:44.722Z,98548.92
2018-07-09T04:47:13.943Z,98548.98
2018-07-09T04:49:42.430Z,98549.48
2018-07-09T04:52:10.895Z,98545.48
2018-07-09T04:54:39.319Z,98551.06
2018-07-09T04:57:07.768Z,98549.98
2018-07-09T04:59:36.211Z,98542.90
2018-07-09T05:02:04.717Z,98550.59
2018-07-09T05:04:33.179Z,98548.58
2018-07-09T05:07:01.851Z,98543.88
2018-07-09T05:09:30.291Z,98547.14
2018-07-09T05:11:58.745Z,98539.72
2018-07-09T05:14:27.192Z,98537.33
2018-07-09T05:16:55.628Z,98537.64
2018-07-09T05:19:24.058Z,98536.69
2018-07-09T05:21:52.552Z,98533.64
2018-07-09T05:24:21.007Z,98538.30
2018-07-09T05:26:49.695Z,98545.80
2018-07-09T05:29:18.221Z,98546.39
2018-07-09T05:31:46.666Z,98546.14
2018-07-09T05:34:15.108Z,98535.93
2018-07-09T05:36:43.535Z,98541.62
2018-07-09T05:39:11.991Z,98542.02
2018-07-09T05:42:42.928Z,98538.80
2018-07-09T05:45:11.378Z,98540.92
2018-07-09T05:51:11.155Z,98552.34
2018-07-09T05:53:39.559Z,98547.72
2018-07-09T05:56:08.039Z,98538.44
2018-07-09T05:58:36.526Z,98533.87
2018-07-09T06:01:05.091Z,98538.16
2018-07-09T06:03:33.581Z,98537.42
2018-07-09T06:06:02.068Z,98541.61
2018-07-09T06:08:30.465Z,98535.48
2018-07-09T06:10:58.968Z,98535.19
2018-07-09T06:13:27.445Z,98537.98
2018-07-09T06:15:55.999Z,98535.66
2018-07-09T06:18:24.432Z,98540.91
2018-07-09T06:20:53.056Z,98540.23
2018-07-09T06:23:21.496Z,98539.66
2018-07-09T06:25:50.114Z,98543.00
2018-07-09T06:28:18.584Z,98541.88
2018-07-09T06:30:47.060Z,98544.95
2018-07-09T06:33:15.496Z,98543.27
2018-07-09T06:35:44.019Z,98547.77
2018-07-09T06:38:12.482Z,98543.41
2018-07-09T06:40:40.951Z,98546.61
2018-07-09T06:43:09.448Z,98548.34
2018-07-09T06:45:38.103Z,98548.00
2018-07-09T06:48:06.759Z,98542.36
2018-07-09T06:50:35.211Z,98545.77
2018-07-09T06:53:03.664Z,98539.98
2018-07-09T06:55:32.096Z,98536.63
2018-07-09T06:58:00.640Z,98537.15
2018-07-09T07:00:29.979Z,98533.28
2018-07-09T07:02:58.412Z,98538.81
2018-07-09T07:05:26.863Z,98534.79
2018-07-09T07:07:55.311Z,98534.79
2018-07-09T07:10:24.079Z,98532.61
2018-07-09T07:12:52.495Z,98537.79
2018-07-09T07:15:20.983Z,98528.59
2018-07-09T07:17:49.418Z,98532.06
2018-07-09T07:20:17.884Z,98527.70
2018-07-09T07:22:46.326Z,98526.22
2018-07-09T07:25:14.902Z,98528.63
2018-07-09T07:27:43.621Z,98524.56
2018-07-09T07:30:12.056Z,98519.70
2018-07-09T07:32:40.466Z,98527.06
2018-07-09T07:35:09.005Z,98525.27
2018-07-09T07:37:37.427Z,98523.03
2018-07-09T07:40:06.184Z,98519.89
2018-07-09T07:42:34.701Z,98522.45
2018-07-09T07:45:03.215Z,98516.56
2018-07-09T07:47:31.679Z,98520.20
2018-07-09T07:50:00.427Z,98522.95
2018-07-09T07:52:28.883Z,98515.91
2018-07-09T07:54:57.300Z,98519.62
2018-07-09T07:57:25.795Z,98516.63
2018-07-09T07:59:54.195Z,98515.59
2018-07-09T08:02:22.651Z,98515.84
2018-07-09T08:04:51.124Z,98513.07
2018-07-09T08:07:19.541Z,98501.61
2018-07-09T08:09:48.007Z,98499.90
2018-07-09T08:13:00.544Z,98499.00
2018-07-09T08:14:44.919Z,98498.95
2018-07-09T08:17:13.413Z,98491.84
2018-07-09T08:19:41.874Z,98496.61
2018-07-09T08:22:10.290Z,98497.59
2018-07-09T08:24:38.772Z,98495.64
2018-07-09T08:27:07.249Z,98497.41
2018-07-09T08:29:35.760Z,98492.98
2018-07-09T08:32:04.196Z,98490.23
2018-07-09T08:34:32.664Z,98482.16
2018-07-09T08:37:01.126Z,98481.66
2018-07-09T08:39:29.531Z,98486.76
2018-07-09T08:41:58.017Z,98481.61
2018-07-09T08:44:26.443Z,98485.69
2018-07-09T08:46:54.886Z,98486.11
2018-07-09T08:49:23.348Z,98483.33
2018-07-09T08:51:51.775Z,98481.69
2018-07-09T08:54:20.236Z,98484.98
2018-07-09T08:56:48.644Z,98484.16
2018-07-09T08:59:17.087Z,98478.21
2018-07-09T09:01:45.528Z,98478.61
2018-07-09T09:04:13.985Z,98473.58
2018-07-09T09:06:42.425Z,98470.42
2018-07-09T09:09:10.980Z,98462.24
2018-07-09T09:11:39.403Z,98467.50
2018-07-09T09:14:07.865Z,98466.78
2018-07-09T09:16:36.380Z,98474.45
2018-07-09T09:19:04.804Z,98471.52
2018-07-09T09:21:33.245Z,98468.97
2018-07-09T09:24:01.730Z,98468.23
2018-07-09T09:26:30.161Z,98461.59
2018-07-09T09:28:58.604Z,98464.39
2018-07-09T09:31:27.155Z,98465.12
2018-07-09T09:33:55.575Z,98465.36
2018-07-09T09:36:24.049Z,98469.17
2018-07-09T09:38:52.526Z,98468.13
2018-07-09T09:41:20.980Z,98463.80
2018-07-09T09:43:50.440Z,98465.91
2018-07-09T09:46:18.849Z,98459.34
2018-07-09T09:48:47.284Z,98464.92
2018-07-09T09:51:15.787Z,98467.75
2018-07-09T09:53:44.250Z,98463.64
2018-07-09T09:56:13.009Z,98470.77
2018-07-09T09:58:41.476Z,98466.70
2018-07-09T10:01:09.974Z,98465.15
2018-07-09T10:03:38.401Z,98458.23
2018-07-09T10:06:06.901Z,98462.18
2018-07-09T10:08:35.402Z,98463.59
2018-07-09T10:11:03.911Z,98459.94
2018-07-09T10:13:32.344Z,98459.73
2018-07-09T10:16:01.520Z,98456.73
2018-07-09T10:18:29.981Z,98453.86
2018-07-09T10:22:01.238Z,98452.02
2018-07-09T10:24:29.700Z,98460.84
2018-07-09T10:26:58.159Z,98450.30
2018-07-09T10:29:26.558Z,98449.06
2018-07-09T10:31:55.914Z,98441.36
2018-07-09T10:34:24.383Z,98445.80
2018-07-09T10:36:53.072Z,98439.70
2018-07-09T10:39:21.625Z,98446.20
2018-07-09T10:41:50.051Z,98443.20
2018-07-09T10:44:18.519Z,98442.11
2018-07-09T10:46:46.964Z,98448.81
2018-07-09T10:49:15.420Z,98436.92
2018-07-09T10:51:43.818Z,98435.17
2018-07-09T10:54:12.330Z,98435.55
2018-07-09T10:56:40.843Z,98431.25
2018-07-09T10:59:09.499Z,98434.75
2018-07-09T11:01:38.023Z,98436.82
2018-07-09T11:04:06.937Z,98435.45
2018-07-09T11:06:35.571Z,98433.97
2018-07-09T11:09:05.052Z,98435.41
2018-07-09T11:11:33.519Z,98435.84
2018-07-09T11:14:01.932Z,98438.73
2018-07-09T11:16:30.368Z,98443.61
2018-07-09T11:18:59.354Z,98438.72
2018-07-09T11:21:27.809Z,98438.03
2018-07-09T11:23:56.248Z,98434.23
2018-07-09T11:26:24.775Z,98425.13
2018-07-09T11:28:53.530Z,98427.44
2018-07-09T11:31:21.941Z,98421.25
2018-07-09T11:33:50.380Z,98419.55
2018-07-09T11:36:18.858Z,98415.87
2018-07-09T11:38:47.279Z,98407.77
2018-07-09T11:41:15.687Z,98413.31
2018-07-09T11:43:44.169Z,98412.37
2018-07-09T11:46:12.604Z,98404.89
2018-07-09T11:48:41.047Z,98404.52
2018-07-09T11:51:09.520Z,98400.69
2018-07-09T11:53:38.212Z,98392.47
2018-07-09T11:56:06.636Z,98390.21
2018-07-09T11:58:35.330Z,98390.79
2018-07-09T12:01:03.782Z,98384.98
2018-07-09T12:03:32.223Z,98376.11
2018-07-09T12:06:00.627Z,98381.34
2018-07-09T12:08:29.080Z,98374.77
2018-07-09T12:10:57.526Z,98364.06
2018-07-09T12:13:26.065Z,98368.19
2018-07-09T12:15:54.500Z,98371.88
2018-07-09T12:18:22.975Z,98357.97
2018-07-09T12:20:51.407Z,98355.75
2018-07-09T12:23:19.847Z,98356.58
2018-07-09T12:25:48.310Z,98355.47
2018-07-09T12:28:17.025Z,98352.68
2018-07-09T12:30:45.960Z,98358.08
2018-07-09T12:33:14.443Z,98357.13
2018-07-09T12:35:43.110Z,98348.83
2018-07-09T12:38:11.561Z,98350.91
2018-07-09T12:40:40.028Z,98336.65
2018-07-09T12:43:08.880Z,98340.61
2018-07-09T12:45:37.394Z,98330.27
2018-07-09T12:48:06.237Z,98341.64
2018-07-09T12:50:34.688Z,98334.85
2018-07-09T12:53:03.347Z,98328.65
2018-07-09T12:55:31.774Z,98327.41
2018-07-09T12:58:00.351Z,98342.39
2018-07-09T13:00:28.803Z,98341.46
2018-07-09T13:02:57.242Z,98333.63
2018-07-09T13:05:25.715Z,98327.82
2018-07-09T13:07:54.417Z,98325.39
2018-07-09T13:10:22.840Z,98318.63
2018-07-09T13:12:51.267Z,98318.78
2018-07-09T13:15:19.752Z,98319.62
2018-07-09T13:17:48.215Z,98324.45
2018-07-09T13:20:16.771Z,98312.11
2018-07-09T13:22:45.471Z,98312.72
2018-07-09T13:25:14.014Z,98315.87
2018-07-09T13:27:42.659Z,98322.09
2018-07-09T13:30:11.286Z,98312.46
2018-07-09T13:32:39.891Z,98298.59
2018-07-09T13:35:08.351Z,98306.48
2018-07-09T13:37:36.906Z,98303.49
2018-07-09T13:40:05.368Z,98304.41
2018-07-09T13:42:33.878Z,98299.88
2018-07-09T13:45:02.445Z,98297.19
2018-07-09T13:47:30.838Z,98291.02
2018-07-09T13:49:59.315Z,98298.86
2018-07-09T13:52:27.896Z,98296.75
2018-07-09T13:54:56.388Z,98295.89
2018-07-09T13:57:25.119Z,98297.41
2018-07-09T13:59:53.654Z,98299.55
2018-07-09T14:02:22.035Z,98286.37
2018-07-09T14:04:50.471Z,98284.81
2018-07-09T14:07:19.264Z,98290.61
2018-07-09T14:09:48.009Z,98287.42
2018-07-09T14:12:16.440Z,98277.60
2018-07-09T14:14:44.851Z,98271.73
2018-07-09T14:17:13.742Z,98273.73
2018-07-09T14:20:20.267Z,98262.27
2018-07-09T14:22:48.721Z,98270.98
2018-07-09T14:25:17.583Z,98275.09
2018-07-09T14:27:46.006Z,98265.68
2018-07-09T14:30:14.488Z,98263.47
2018-07-09T14:32:43.420Z,98253.45
2018-07-09T14:35:11.953Z,98261.84
2018-07-09T14:37:40.364Z,98268.28
2018-07-09T14:40:08.803Z,98259.84
2018-07-09T14:42:37.239Z,98256.23
2018-07-09T14:45:06.010Z,98253.83
2018-07-09T14:47:34.502Z,98264.25
2018-07-09T14:50:03.134Z,98255.56
2018-07-09T14:52:31.774Z,98251.32
2018-07-09T14:55:00.370Z,98246.75
2018-07-09T14:57:28.856Z,98262.23
2018-07-09T14:59:57.311Z,98257.63
2018-07-09T15:02:25.713Z,98258.73
2018-07-09T15:04:54.151Z,98261.63
2018-07-09T15:07:22.919Z,98260.78
2018-07-09T15:09:51.356Z,98237.95
2018-07-09T15:12:20.199Z,98251.58
2018-07-09T15:14:48.747Z,98245.50
2018-07-09T15:17:17.463Z,98247.77
2018-07-09T15:19:45.939Z,98245.02
2018-07-09T15:22:14.419Z,98243.86
2018-07-09T15:24:42.940Z,98243.94
2018-07-09T15:27:11.376Z,98240.72
2018-07-09T15:29:40.162Z,98244.91
2018-07-09T15:32:19.738Z,98252.73
2018-07-09T15:34:48.160Z,98256.72
2018-07-09T15:37:16.891Z,98247.98
2018-07-09T15:39:45.276Z,98254.43
2018-07-09T15:42:13.766Z,98245.71
2018-07-09T15:44:42.803Z,98247.59
2018-07-09T15:47:11.670Z,98235.26
2018-07-09T15:49:40.784Z,98245.13
2018-07-09T15:52:09.202Z,98237.28
2018-07-09T15:54:37.684Z,98233.73
2018-07-09T15:57:06.145Z,98234.38
2018-07-09T15:59:34.888Z,98232.83
2018-07-09T16:02:03.368Z,98250.77
2018-07-09T16:04:31.779Z,98229.99
2018-07-09T16:07:00.397Z,98246.36
2018-07-09T16:09:29.701Z,98236.65
2018-07-09T16:11:58.131Z,98238.08
2018-07-09T16:14:26.787Z,98234.65
2018-07-09T16:16:55.236Z,98238.54
2018-07-09T16:19:23.897Z,98236.48
2018-07-09T16:21:52.792Z,98230.13
2018-07-09T16:24:21.232Z,98252.55
2018-07-09T16:26:49.756Z,98239.89
2018-07-09T16:29:18.251Z,98244.98
2018-07-09T16:31:46.768Z,98241.77
2018-07-09T16:34:15.699Z,98241.25
2018-07-09T16:36:44.124Z,98238.90
2018-07-09T16:39:12.727Z,98238.64
2018-07-09T16:41:41.171Z,98235.31
2018-07-09T16:44:09.952Z,98240.31
2018-07-09T16:46:38.468Z,98241.98
2018-07-09T16:49:06.960Z,98235.17
2018-07-09T16:51:35.416Z,98236.84
2018-07-09T16:54:03.963Z,98244.02
2018-07-09T16:56:32.480Z,98247.09
2018-07-09T16:59:00.912Z,98299.25
2018-07-09T17:01:29.309Z,98316.51
2018-07-09T17:03:57.778Z,98282.87
2018-07-09T17:06:26.482Z,98269.31
2018-07-09T17:08:54.895Z,98239.87
2018-07-09T17:11:23.366Z,98202.75
2018-07-09T17:13:51.839Z,98240.55
2018-07-09T17:16:20.294Z,98237.36
2018-07-09T17:18:48.808Z,98241.70
2018-07-09T17:21:17.427Z,98240.66
2018-07-09T17:23:46.107Z,98240.14
2018-07-09T17:26:14.616Z,98238.79
2018-07-09T17:28:43.133Z,98245.97
2018-07-09T17:31:11.984Z,98242.30
2018-07-09T17:33:40.479Z,98245.97
2018-07-09T17:36:08.977Z,98247.64
2018-07-09T17:38:37.441Z,98241.26
2018-07-09T17:41:06.287Z,98244.23
2018-07-09T17:43:34.977Z,98244.05
2018-07-09T17:46:03.662Z,98245.90
2018-07-09T17:48:32.057Z,98242.00
2018-07-09T17:51:00.767Z,98250.44
2018-07-09T17:53:29.299Z,98242.41
2018-07-09T17:55:57.803Z,98251.03
2018-07-09T17:58:26.253Z,98249.83
2018-07-09T18:00:55.052Z,98247.50
2018-07-09T18:03:23.480Z,98253.32
2018-07-09T18:05:51.942Z,98254.89
2018-07-09T18:08:20.776Z,98252.31
2018-07-09T18:10:49.436Z,98252.62
2018-07-09T18:13:17.898Z,98249.01
2018-07-09T18:15:46.439Z,98250.02
2018-07-09T18:18:14.855Z,98249.25
2018-07-09T18:20:43.563Z,98249.90
2018-07-09T18:23:12.012Z,98247.63
2018-07-09T18:25:40.630Z,98247.39
2018-07-09T18:28:09.052Z,98247.09
2018-07-09T18:30:37.591Z,98247.54
2018-07-09T18:33:06.515Z,98242.80
2018-07-09T18:35:35.133Z,98241.05
2018-07-09T18:38:03.863Z,98242.51
2018-07-09T18:40:32.291Z,98238.69
2018-07-09T18:43:00.715Z,98241.63
2018-07-09T18:45:29.235Z,98245.53
2018-07-09T18:47:57.674Z,98243.92
2018-07-09T18:50:26.200Z,98243.88
2018-07-09T18:52:54.706Z,98242.20
2018-07-09T18:55:23.206Z,98248.75
2018-07-09T18:57:51.678Z,98251.13
2018-07-09T19:00:20.188Z,98248.67
2018-07-09T19:02:48.654Z,98245.52
2018-07-09T19:05:17.287Z,98247.27
2018-07-09T19:07:45.896Z,98251.23
2018-07-09T19:10:14.572Z,98250.90
2018-07-09T19:12:43.198Z,98252.25
2018-07-09T19:15:11.648Z,98258.53
2018-07-09T19:17:52.978Z,98259.55
2018-07-09T19:20:32.845Z,98260.81
2018-07-09T19:23:00.089Z,98260.66
2018-07-09T19:25:27.675Z,98267.69
2018-07-09T19:27:54.923Z,98262.31
2018-07-09T19:30:22.148Z,98267.09
2018-07-09T19:32:49.400Z,98266.22
2018-07-09T19:35:17.073Z,98260.52
2018-07-09T19:37:45.890Z,98265.77
2018-07-09T19:40:12.875Z,98262.45
2018-07-09T19:42:40.134Z,98263.33
2018-07-09T19:45:07.423Z,98257.76
2018-07-09T19:47:34.639Z,98266.06
2018-07-09T19:50:01.919Z,98263.20
2018-07-09T19:52:29.996Z,98270.34
2018-07-09T19:54:57.275Z,98271.83
2018-07-09T19:57:24.502Z,98269.25
2018-07-09T19:59:51.729Z,98274.91
2018-07-09T20:02:19.019Z,98269.70
2018-07-09T20:04:46.318Z,98276.28
2018-07-09T20:07:13.566Z,98272.42
2018-07-09T20:09:46.165Z,98274.21
2018-07-09T20:12:18.757Z,98269.13
2018-07-09T20:14:51.326Z,98264.09
2018-07-09T20:17:27.742Z,98262.02
2018-07-09T20:19:55.036Z,98264.70
2018-07-09T20:22:22.256Z,98262.57
2018-07-09T20:24:49.484Z,98269.63
2018-07-09T20:27:16.743Z,98276.27
2018-07-09T20:29:43.968Z,98271.44
2018-07-09T20:32:11.228Z,98275.64
2018-07-09T20:34:38.520Z,98270.14
2018-07-09T20:37:05.784Z,98274.93
2018-07-09T20:39:33.000Z,98269.20
2018-07-09T20:42:00.248Z,98273.08
2018-07-09T20:44:27.503Z,98266.91
2018-07-09T20:46:54.752Z,98272.38
2018-07-09T20:49:21.991Z,98269.13
2018-07-09T20:51:49.231Z,98266.14
2018-07-09T20:54:16.462Z,98227.91
2018-07-09T20:56:43.728Z,98271.05
2018-07-09T20:59:10.983Z,98265.16
2018-07-09T21:01:38.215Z,98262.25
2018-07-09T21:04:10.642Z,98262.72
2018-07-09T21:06:37.915Z,98263.90
2018-07-09T21:09:05.538Z,98266.52
2018-07-09T21:11:32.767Z,98264.39
2018-07-09T21:14:00.023Z,98263.86
2018-07-09T21:16:27.248Z,98268.84
2018-07-09T21:18:54.501Z,98265.19
2018-07-09T21:21:26.138Z,98265.83
2018-07-09T21:23:53.791Z,98265.84
2018-07-09T21:26:21.107Z,98270.46
2018-07-09T21:28:48.722Z,98261.92
2018-07-09T21:31:15.951Z,98267.26
2018-07-09T21:33:43.636Z,98264.77
2018-07-09T21:36:11.451Z,98266.50
2018-07-09T21:38:39.135Z,98268.59
2018-07-09T21:41:06.359Z,98262.03
2018-07-09T21:43:33.681Z,98263.09
2018-07-09T21:46:00.864Z,98262.20
2018-07-09T21:48:29.795Z,98265.78
2018-07-09T21:50:55.969Z,98256.53
2018-07-09T21:53:24.267Z,98259.49
2018-07-09T21:55:51.764Z,98259.97
2018-07-09T21:58:19.003Z,98257.66
2018-07-09T22:00:46.263Z,98265.42
2018-07-09T22:03:13.495Z,98259.58
2018-07-09T22:05:40.771Z,98262.81
2018-07-09T22:08:07.997Z,98267.54
2018-07-09T22:10:35.237Z,98255.64
2018-07-09T22:13:02.487Z,98260.44
2018-07-09T22:15:29.707Z,98262.65
2018-07-09T22:17:56.987Z,98254.87
2018-07-09T22:20:24.242Z,98258.19
2018-07-09T22:22:51.475Z,98252.59
2018-07-09T22:25:18.733Z,98251.59
2018-07-09T22:27:45.955Z,98250.20
2018-07-09T22:30:13.237Z,98248.44
2018-07-09T22:32:41.871Z,98243.17
2018-07-09T22:35:10.346Z,98241.09
2018-07-09T22:37:38.798Z,98236.36
2018-07-09T22:40:07.253Z,98239.13
2018-07-09T22:42:35.708Z,98235.40
2018-07-09T22:45:04.147Z,98233.29
2018-07-09T22:47:32.640Z,98236.09
2018-07-09T22:50:01.060Z,98232.72
2018-07-09T22:52:29.478Z,98231.55
2018-07-09T22:55:08.940Z,98228.30
2018-07-09T22:57:37.352Z,98216.81
2018-07-09T23:00:05.815Z,98220.59
2018-07-09T23:03:37.166Z,98208.75
2018-07-09T23:06:05.750Z,98207.80
2018-07-09T23:08:34.260Z,98212.22
2018-07-09T23:13:46.524Z,98209.37
2018-07-09T23:16:50.156Z,98221.16
2018-07-09T23:19:31.061Z,98217.58
2018-07-09T23:22:10.547Z,98217.22
2018-07-09T23:24:37.804Z,98214.30
2018-07-09T23:27:05.056Z,98219.81
2018-07-09T23:29:32.282Z,98217.27
2018-07-09T23:31:59.541Z,98218.24
2018-07-09T23:34:26.766Z,98215.63
2018-07-09T23:36:54.108Z,98212.23
2018-07-09T23:39:21.606Z,98207.45
2018-07-09T23:41:48.836Z,98204.88
2018-07-09T23:44:16.115Z,98194.33
2018-07-09T23:46:43.363Z,98194.38
2018-07-09T23:49:10.626Z,98191.11
2018-07-09T23:51:37.901Z,98188.88
2018-07-09T23:54:05.149Z,98182.70
2018-07-09T23:57:44.930Z,98179.75
